Camden, Michigan
Current Conditions -  °F | °C
As of 12:54 PM on Saturday 25 Oct 2014 (Local Time) from KJYM Reporting Station
Overcast Overcast  
Wind Chill: 61°   Ceiling: 1500
Heat Index: 61°   Visibility: 7mi
Dew Point: 54°   Wind: 16mph
Humidity: 79%   Direction: 280°W
Pressure: 29.86"   Gusts: 21mph
Location:  41.75°N, 84.76°W
Report Text: KJYM 251654Z AUTO 28014G18KT 7SM OVC015 16/12 A2986 RMK AO2 T01590123
Loading
Personal Weather Stations






























Interactive Weather Map New forecast layout! Learn more

10-Day Weather Forecast

Advertisements
Track Severe Weather on mobile